Latest Coastal Weather Observations for Cape Jaffa

IDS60701

Issued at 12:51 pm CST Friday 31 July 2015 (issued every 10 minutes, with the page automatically refreshed every 10 minutes)

About coastal observations | Map of coastal stations | Coastal observations for SA | Marine services | Other Formats
Station Details ID: 026095 Name: THE LIMESTONE Lat: -36.97 Lon: 139.72 Height: 17.0 m
Data from the previous 72 hours. | See also: Recent months at Cape Jaffa
Date/Time
CST
Temp

°C
Wind Pressure Rain
since 9am
mm
Weather Cloud Vis
km
Sea
Height
m
Swell
Dir
 
Speed
knots
Gust
knots
hPa Trend Height
m
Period
s
Dir
31/12:30pm 11.3 N 16 21 1017.7 - 0.0 - - - - - - -
31/12:00pm 10.9 N 14 18 1018.4 - 0.0 - - - - - - -
31/11:30am 11.2 N 14 18 1019.1 - 0.0 - - - - - - -
31/11:00am 10.8 N 13 16 1019.6 - 0.0 - - - - - - -
31/10:30am 10.7 N 13 17 1020.2 - 0.0 - - - - - - -
31/10:00am 10.9 NNW 10 15 1020.4 - 0.0 - - - - - - -
31/09:30am 10.6 N 10 14 1020.7 - 0.0 - - - - - - -
31/09:00am 10.2 NNW 9 13 1020.9 - 0.4 - - - - - - -
31/08:30am 10.1 N 9 13 1020.9 - 0.4 - - - - - - -
31/08:00am 9.5 N 7 11 1020.9 - 0.4 - - - - - - -
31/07:30am 8.4 N 4 5 1020.9 - 0.4 - - - - - - -
31/07:00am 8.1 N 4 6 1020.7 - 0.4 - - - - - - -
31/06:30am 9.1 NW 5 6 1020.7 - 0.4 - - - - - - -
31/06:00am 8.7 NW 5 9 1020.6 - 0.4 - - - - - - -
31/05:30am 8.6 NW 3 5 1020.9 - 0.4 - - - - - - -
31/05:00am 8.1 W 2 3 1020.7 - 0.4 - - - - - - -
31/04:30am 7.8 NW 5 7 1020.7 - 0.4 - - - - - - -
31/04:00am 7.4 W 4 5 1020.6 - 0.4 - - - - - - -
31/03:30am 7.6 W 4 7 1020.6 - 0.4 - - - - - - -
31/03:00am 8.4 WSW 7 9 1020.9 - 0.4 - - - - - - -
31/02:30am 9.6 WSW 7 11 1021.1 - 0.4 - - - - - - -
31/02:00am 9.3 SW 5 8 1021.4 - 0.4 - - - - - - -
31/01:30am 9.4 NW 3 4 1021.2 - 0.4 - - - - - - -
31/01:00am 8.7 WSW 7 9 1021.2 - 0.4 - - - - - - -
31/12:30am 9.1 SSW 6 8 1021.4 - 0.4 - - - - - - -
31/12:00am 10.1 SW 7 11 1021.6 - 0.4 - - - - - - -
 
Date/Time
CST
Temp

°C
Wind Pressure Rain
since 9am
mm
Weather Cloud Vis
km
Sea
Height
m
Swell
Dir
 
Speed
knots
Gust
knots
hPa Trend Height
m
Period
s
Dir
30/11:30pm 10.2 SW 7 13 1021.4 - 0.4 - - - - - - -
30/11:00pm 10.1 SW 8 10 1021.3 - 0.4 - - - - - - -
30/10:30pm 9.2 SW 9 12 1021.1 - 0.4 - - - - - - -
30/10:00pm 9.6 S 9 13 1020.8 - 0.4 - - - - - - -
30/09:30pm 9.2 SW 11 15 1020.7 - 0.4 - - - - - - -
30/09:00pm 9.4 SSW 12 15 1020.2 - 0.4 - - - - - - -
30/08:30pm 10.0 SW 16 21 1019.8 - 0.4 - - - - - - -
30/08:00pm 10.2 SW 15 19 1019.3 - 0.4 - - - - - - -
30/07:30pm 10.1 SW 17 23 1018.9 - 0.4 - - - - - - -
30/07:00pm 10.8 SW 17 22 1018.3 - 0.4 - - - - - - -
30/06:30pm 10.8 SW 18 25 1017.9 - 0.4 - - - - - - -
30/06:00pm 11.2 SW 21 27 1017.0 - 0.4 - - - - - - -
30/05:30pm 11.1 SW 18 24 1016.1 - 0.4 - - - - - - -
30/05:00pm 10.9 SW 20 27 1015.8 - 0.4 - - - - - - -
30/04:30pm 11.3 WSW 20 26 1015.0 - 0.4 - - - - - - -
30/04:15pm 11.4 WSW 21 32 1014.9 - 0.4 - - - - - - -
30/04:00pm 11.8 SW 24 30 1014.3 - 0.4 - - - - - - -
30/03:32pm 12.9 WNW 21 39 1013.5 - 0.4 - - - - - - -
30/03:30pm 13.7 WNW 18 33 1013.5 - 0.4 - - - - - - -
30/03:00pm 14.8 WNW 15 21 1013.1 - 0.4 - - - - - - -
30/02:30pm 13.8 NW 14 19 1013.4 - 0.4 - - - - - - -
30/02:00pm 12.2 NW 16 22 1013.4 - 0.4 - - - - - - -
30/01:30pm 13.5 NW 19 24 1013.3 - 0.2 - - - - - - -
30/01:00pm 13.0 NW 22 34 1013.5 - 0.2 - - - - - - -
30/12:56pm 13.3 NW 20 34 1013.5 - 0.2 - - - - - - -
30/12:30pm 13.3 NNW 21 28 1013.4 - 0.2 - - - - - - -
30/12:00pm 12.7 NNW 20 27 1013.9 - 0.2 - - - - - - -
30/11:30am 11.6 N 17 22 1014.4 - 0.2 - - - - - - -
30/11:00am 11.4 N 19 25 1014.9 - 0.2 - - - - - - -
30/10:30am 10.9 N 17 21 1015.1 - 0.2 - - - - - - -
30/10:00am 10.5 N 18 23 1015.2 - 0.2 - - - - - - -
30/09:30am 10.1 N 19 25 1015.5 - 0.0 - - - - - - -
30/09:00am 10.6 N 19 24 1015.7 - 0.0 - - - - - - -
30/08:30am 10.3 N 18 22 1015.9 - 0.0 - - - - - - -
30/08:00am 10.2 N 16 21 1016.2 - 0.0 - - - - - - -
30/07:30am 10.2 N 17 21 1016.3 - 0.0 - - - - - - -
30/07:00am 10.1 N 17 22 1016.5 - 0.0 - - - - - - -
30/06:30am 9.6 N 15 20 1016.4 - 0.0 - - - - - - -
30/06:00am 9.2 NNE 17 21 1016.3 - 0.0 - - - - - - -
30/05:30am 9.8 N 16 20 1016.7 - 0.0 - - - - - - -
30/05:00am 9.7 N 16 20 1016.9 - 0.0 - - - - - - -
30/04:30am 9.7 N 16 20 1017.4 - 0.0 - - - - - - -
30/04:00am 9.9 N 17 21 1018.1 - 0.0 - - - - - - -
30/03:30am 10.0 N 16 21 1018.5 - 0.0 - - - - - - -
30/03:00am 9.9 N 17 23 1019.1 - 0.0 - - - - - - -
30/02:30am 10.0 N 16 20 1019.7 - 0.0 - - - - - - -
30/02:00am 10.0 N 18 24 1019.9 - 0.0 - - - - - - -
30/01:30am 10.1 N 18 23 1020.2 - 0.0 - - - - - - -
30/01:00am 9.9 N 19 24 1020.5 - 0.0 - - - - - - -
30/12:30am 9.7 N 17 22 1020.8 - 0.0 - - - - - - -
30/12:00am 9.7 N 17 20 1021.4 - 0.0 - - - - - - -
 
Date/Time
CST
Temp

°C
Wind Pressure Rain
since 9am
mm
Weather Cloud Vis
km
Sea
Height
m
Swell
Dir
 
Speed
knots
Gust
knots
hPa Trend Height
m
Period
s
Dir
29/11:30pm 10.3 N 18 22 1021.9 - 0.0 - - - - - - -
29/11:00pm 10.1 N 16 21 1022.5 - 0.0 - - - - - - -
29/10:30pm 10.0 N 15 19 1022.9 - 0.0 - - - - - - -
29/10:00pm 9.9 N 17 22 1023.2 - 0.0 - - - - - - -
29/09:30pm 9.8 N 15 20 1023.6 - 0.0 - - - - - - -
29/09:00pm 9.8 NNE 17 21 1023.7 - 0.0 - - - - - - -
29/08:30pm 9.7 N 14 20 1024.0 - 0.0 - - - - - - -
29/08:00pm 9.9 N 15 20 1023.9 - 0.0 - - - - - - -
29/07:30pm 10.1 NNE 15 20 1023.8 - 0.0 - - - - - - -
29/07:00pm 9.9 NNE 14 19 1024.2 - 0.0 - - - - - - -
29/06:30pm 10.1 NNE 13 16 1024.1 - 0.0 - - - - - - -
29/06:00pm 10.0 NNE 13 15 1023.8 - 0.0 - - - - - - -
29/05:30pm 10.2 NNE 12 15 1024.1 - 0.0 - - - - - - -
29/05:00pm 10.4 N 12 14 1024.3 - 0.0 - - - - - - -
29/04:30pm 10.8 N 13 17 1024.7 - 0.0 - - - - - - -
29/04:00pm 10.9 N 14 18 1025.0 - 0.0 - - - - - - -
29/03:30pm 11.1 N 14 17 1025.4 - 0.0 - - - - - - -
29/03:00pm 11.1 N 15 19 1025.3 - 0.0 - - - - - - -
29/02:30pm 10.9 N 15 20 1025.7 - 0.0 - - - - - - -
29/02:00pm 11.1 N 16 20 1025.8 - 0.0 - - - - - - -
29/01:30pm 11.1 N 18 24 1026.1 - 0.0 - - - - - - -
29/01:00pm 11.1 N 18 21 1026.6 - 0.0 - - - - - - -
29/12:30pm 11.3 N 19 23 1027.4 - 0.0 - - - - - - -
29/12:00pm 10.8 N 17 23 1028.0 - 0.0 - - - - - - -
29/11:30am 10.6 N 18 22 1028.8 - 0.0 - - - - - - -
29/11:00am 10.4 N 17 22 1029.5 - 0.0 - - - - - - -
29/10:30am 10.3 N 16 21 1029.9 - 0.0 - - - - - - -
29/10:00am 9.9 N 16 22 1030.1 - 0.0 - - - - - - -
29/09:30am 9.7 N 14 20 1030.6 - 0.0 - - - - - - -
29/09:00am 9.3 NNE 13 17 1030.3 - 1.0 - - - - - - -
29/08:30am 9.5 N 13 17 1030.5 - 1.0 - - - - - - -
29/08:00am 9.0 NNE 11 16 1030.7 - 1.0 - - - - - - -
29/07:30am 9.2 NNE 10 12 1030.7 - 1.0 - - - - - - -
29/07:00am 9.3 N 10 13 1030.9 - 1.0 - - - - - - -
29/06:30am 8.7 NNE 10 14 1030.3 - 1.0 - - - - - - -
29/06:00am 9.2 NNE 9 12 1031.0 - 1.0 - - - - - - -
29/05:30am 9.1 NNE 10 12 1030.7 - 1.0 - - - - - - -
29/05:00am 8.8 N 7 9 1031.2 - 1.0 - - - - - - -
29/04:30am 7.7 NNE 7 9 1031.1 - 1.0 - - - - - - -
29/04:00am 6.1 ENE 6 7 1030.8 - 1.0 - - - - - - -
29/03:30am 6.4 ENE 4 6 1031.3 - 1.0 - - - - - - -
29/03:00am 7.0 NE 5 6 1031.3 - 1.0 - - - - - - -
29/02:30am 7.8 NNE 7 8 1031.3 - 1.0 - - - - - - -
29/02:00am 7.5 NNE 6 8 1031.6 - 1.0 - - - - - - -
29/01:30am 7.2 NE 8 9 1031.7 - 1.0 - - - - - - -
29/01:00am 6.8 NE 7 8 1032.0 - 1.0 - - - - - - -
29/12:30am 7.5 NE 7 8 1032.2 - 1.0 - - - - - - -
29/12:00am 8.5 NNE 7 8 1032.7 - 0.8 - - - - - - -
 
Date/Time
CST
Temp

°C
Wind Pressure Rain
since 9am
mm
Weather Cloud Vis
km
Sea
Height
m
Swell
Dir
 
Speed
knots
Gust
knots
hPa Trend Height
m
Period
s
Dir
28/11:30pm 8.9 NNE 7 8 1032.9 - 0.8 - - - - - - -
28/11:00pm 9.4 NNE 5 6 1032.9 - 0.8 - - - - - - -
28/10:30pm 9.7 NNE 4 5 1033.4 - 0.8 - - - - - - -
28/10:00pm 9.8 N 8 11 1033.4 - 0.8 - - - - - - -
28/09:30pm 9.6 NNW 5 6 1033.9 - 0.8 - - - - - - -
28/09:00pm 9.8 N 6 8 1034.0 - 0.8 - - - - - - -
28/08:30pm 9.8 N 5 6 1034.1 - 0.8 - - - - - - -
28/08:00pm 10.2 NW 5 7 1034.2 - 0.8 - - - - - - -
28/07:30pm 9.7 NW 1 2 1034.3 - 0.6 - - - - - - -
28/07:00pm 9.5 NW 1 2 1034.4 - 0.6 - - - - - - -
28/06:30pm 9.4 NNW 1 2 1034.4 - 0.6 - - - - - - -
28/06:00pm 9.1 N 2 2 1034.1 - 0.6 Recent precip. - - - - - -
28/05:30pm 9.6 WNW 4 6 1034.1 - 0.6 - - - - - - -
28/05:00pm 10.4 NW 8 12 1033.9 - 0.4 - - - - - - -
28/04:30pm 10.4 NNW 4 7 1034.0 - 0.4 - - - - - - -
28/04:00pm 11.1 WNW 10 15 1034.0 - 0.4 - - - - - - -
28/03:30pm 11.8 WSW 4 7 1034.1 - 0.4 - - - - - - -
28/03:00pm 13.1 NW 10 12 1034.0 - 0.2 - - - - - - -
28/02:30pm 12.1 NNW 6 7 1034.0 - 0.2 - - - - - - -
28/02:00pm 13.3 WNW 6 10 1034.2 - 0.2 - - - - - - -
28/01:30pm 13.2 WSW 5 8 1034.4 - 0.2 - - - - - - -
28/01:00pm 11.7 WSW 5 11 1034.9 - 0.0 - - - - - - -

Other Formats:

Comma delimited format used in spreadsheet applications
http://www.bom.gov.au/fwo/IDS60701/IDS60701.94813.axf

JavaScript Object Notation format (JSON) in row-major order
http://www.bom.gov.au/fwo/IDS60701/IDS60701.94813.json